South River — ICJH — position and weather

sailwx.info

Track history (hours):
 
Tides and Currents Weather Stations Pressure Air Temp Water Temp Dewpoint Dewpoint Depression Visibility Wind Speed Wind Dir Waves Ship Positions

South River

Last reported at 2018-May-13 12:36 UTC. Time now 2018-May-21 06:55 UTC.
Position N 37°04' E 023°42'.

Length 158 m; draft 9.8 m.

Type: Cargo ship. MMSI: 247286300.

Date/timePositionNaut miles runAvg speedWind from/ knotsBaromVisibWave heightAir tempDewpointWater temp
2018-May-13 12:36N 37°04' E 023°42'  
2018-May-04 09:11N 37°58' E 015°35'213.3
2018-May-04 09:00N 38°01' E 015°34'713.5
2018-May-04 08:27N 38°08' E 015°35'612.9
2018-May-04 07:59N 38°14' E 015°36'5 9.3
2018-May-04 07:28N 38°18' E 015°39'612.9
2018-May-04 07:00N 38°23' E 015°34'713.2
2018-May-04 06:30N 38°28' E 015°29'713.3
2018-May-04 05:58N 38°33' E 015°23'713.4
2018-May-04 05:29N 38°38' E 015°18'613.0
2018-May-04 04:59N 38°43' E 015°12'  
Track history (hours):
 
Tides and Currents Weather Stations Pressure Air Temp Water Temp Dewpoint Dewpoint Depression Visibility Wind Speed Wind Dir Waves Ship Positions

South River

Last reported at 2018-May-13 12:36 UTC. Time now 2018-May-21 06:55 UTC.
Position N 37°04' E 023°42'.

Length 158 m; draft 9.8 m.

Type: Cargo ship. MMSI: 247286300.

Date/timePositionNaut miles runAvg speedWind from/ knotsBaromVisibWave heightAir tempDewpointWater temp
2018-May-13 12:36N 37°04' E 023°42'  
2018-May-04 09:11N 37°58' E 015°35'213.3
2018-May-04 09:00N 38°01' E 015°34'713.5
2018-May-04 08:27N 38°08' E 015°35'612.9
2018-May-04 07:59N 38°14' E 015°36'5 9.3
2018-May-04 07:28N 38°18' E 015°39'612.9
2018-May-04 07:00N 38°23' E 015°34'713.2
2018-May-04 06:30N 38°28' E 015°29'713.3
2018-May-04 05:58N 38°33' E 015°23'713.4
2018-May-04 05:29N 38°38' E 015°18'613.0
2018-May-04 04:59N 38°43' E 015°12'  

Dump ship's entire track history